createdAt,value
2022-12-25T00:00:29.680Z,5.84
2022-12-25T00:01:06.849Z,5.83
2022-12-25T00:01:41.533Z,5.82
2022-12-25T00:02:13.790Z,5.81
2022-12-25T00:02:48.945Z,5.82
2022-12-25T00:03:23.793Z,5.82
2022-12-25T00:03:57.312Z,5.81
2022-12-25T00:04:29.479Z,5.80
2022-12-25T00:05:04.292Z,5.80
2022-12-25T00:05:38.461Z,5.79
2022-12-25T00:06:10.615Z,5.79
2022-12-25T00:06:45.333Z,5.78
2022-12-25T00:07:17.497Z,5.77
2022-12-25T00:07:49.622Z,5.76
2022-12-25T00:08:21.704Z,5.76
2022-12-25T00:08:56.455Z,5.74
2022-12-25T00:09:29.111Z,5.74
2022-12-25T00:10:01.233Z,5.74
2022-12-25T00:10:33.418Z,5.74
2022-12-25T00:11:11.143Z,5.74
2022-12-25T00:11:43.688Z,5.75
2022-12-25T00:12:15.987Z,5.75
2022-12-25T00:12:50.647Z,5.75
2022-12-25T00:13:22.836Z,5.76
2022-12-25T00:13:55.054Z,5.75
2022-12-25T00:14:29.709Z,5.78
2022-12-25T00:15:01.815Z,5.78
2022-12-25T00:15:33.946Z,5.77
2022-12-25T00:16:07.238Z,5.76
2022-12-25T00:16:42.180Z,5.76
2022-12-25T00:17:14.288Z,5.76
2022-12-25T00:17:48.958Z,5.75
2022-12-25T00:18:23.706Z,5.72
2022-12-25T00:18:56.883Z,5.72
2022-12-25T00:19:29.087Z,5.69
2022-12-25T00:20:01.212Z,5.68
2022-12-25T00:20:35.972Z,5.66
2022-12-25T00:21:08.478Z,5.65
2022-12-25T00:21:40.542Z,5.64
2022-12-25T00:22:15.195Z,5.64
2022-12-25T00:22:47.483Z,5.62
2022-12-25T00:23:19.613Z,5.62
2022-12-25T00:23:57.305Z,5.62
2022-12-25T00:24:29.372Z,5.60
2022-12-25T00:25:01.453Z,5.59
2022-12-25T00:25:36.237Z,5.58
2022-12-25T00:26:11.363Z,5.56
2022-12-25T00:26:43.518Z,5.54
2022-12-25T00:27:19.741Z,5.53
2022-12-25T00:27:52.065Z,5.51
2022-12-25T00:28:24.820Z,5.51
2022-12-25T00:29:00.673Z,5.50
2022-12-25T00:29:32.944Z,5.49
2022-12-25T00:30:07.091Z,5.51
2022-12-25T00:30:41.286Z,5.50
2022-12-25T00:31:18.037Z,5.51
2022-12-25T00:31:50.327Z,5.51
2022-12-25T00:32:22.452Z,5.50
2022-12-25T00:32:57.185Z,5.50
2022-12-25T00:33:31.846Z,5.48
2022-12-25T00:34:04.045Z,5.48
2022-12-25T00:34:36.150Z,5.48
2022-12-25T00:35:11.757Z,5.47
2022-12-25T00:35:44.217Z,5.45
2022-12-25T00:36:19.588Z,5.45
2022-12-25T00:36:54.453Z,5.44
2022-12-25T00:37:26.646Z,5.41
2022-12-25T00:37:58.942Z,5.41
2022-12-25T00:38:33.625Z,5.42
2022-12-25T00:39:07.123Z,5.41
2022-12-25T00:39:40.216Z,5.40
2022-12-25T00:40:13.209Z,5.41
2022-12-25T00:40:47.975Z,5.39
2022-12-25T00:41:42.160Z,5.39
2022-12-25T00:42:19.965Z,5.33
2022-12-25T00:42:54.662Z,5.32
2022-12-25T00:43:26.757Z,5.33
2022-12-25T00:43:58.868Z,5.33
2022-12-25T00:44:33.572Z,5.33
2022-12-25T00:45:06.599Z,5.32
2022-12-25T00:45:38.737Z,5.34
2022-12-25T00:46:15.883Z,5.33
2022-12-25T00:46:48.012Z,5.32
2022-12-25T00:47:20.262Z,5.33
2022-12-25T00:47:55.038Z,5.32
2022-12-25T00:48:30.780Z,5.32
2022-12-25T00:49:03.355Z,5.29
2022-12-25T00:49:38.104Z,5.32
2022-12-25T00:50:11.048Z,5.32
2022-12-25T00:50:43.403Z,5.31
2022-12-25T00:51:18.132Z,5.32
2022-12-25T00:51:50.398Z,5.31
2022-12-25T00:52:22.520Z,5.32
2022-12-25T00:52:57.233Z,5.31
2022-12-25T00:53:30.126Z,5.31
2022-12-25T00:54:02.395Z,5.31
2022-12-25T00:54:37.404Z,5.30
2022-12-25T00:55:09.876Z,5.31
2022-12-25T00:55:41.928Z,5.31
2022-12-25T00:56:16.574Z,5.33
2022-12-25T00:56:48.887Z,5.33
2022-12-25T00:57:20.994Z,5.33
2022-12-25T00:57:55.629Z,5.32
2022-12-25T00:58:30.490Z,5.32
2022-12-25T00:59:02.556Z,5.33
2022-12-25T00:59:37.650Z,5.32
2022-12-25T01:00:11.272Z,5.31
2022-12-25T01:00:43.393Z,5.32
2022-12-25T01:01:15.618Z,5.32
2022-12-25T01:01:50.676Z,5.33
2022-12-25T01:02:25.970Z,5.31
2022-12-25T01:02:58.390Z,5.32
2022-12-25T01:03:35.730Z,5.33
2022-12-25T01:04:08.894Z,5.34
2022-12-25T01:04:40.969Z,5.35
2022-12-25T01:05:15.626Z,5.33
2022-12-25T01:05:56.492Z,5.33
2022-12-25T01:06:28.967Z,5.33
2022-12-25T01:07:01.142Z,5.34
2022-12-25T01:07:36.150Z,5.35
2022-12-25T01:08:08.459Z,5.36
2022-12-25T01:09:02.563Z,5.38
2022-12-25T01:10:01.744Z,5.36
2022-12-25T01:10:34.014Z,5.34
2022-12-25T01:11:08.403Z,5.37
2022-12-25T01:11:40.627Z,5.38
2022-12-25T01:12:15.338Z,5.39
2022-12-25T01:12:47.403Z,5.40
2022-12-25T01:13:19.460Z,5.41
2022-12-25T01:13:54.168Z,5.41
2022-12-25T01:14:26.296Z,5.41
2022-12-25T01:14:58.515Z,5.43
2022-12-25T01:15:33.183Z,5.43
2022-12-25T01:16:06.294Z,5.42
2022-12-25T01:16:38.668Z,5.43
2022-12-25T01:17:10.824Z,5.42
2022-12-25T01:17:46.106Z,5.41
2022-12-25T01:18:18.424Z,5.40
2022-12-25T01:18:53.213Z,5.40
2022-12-25T01:19:25.306Z,5.39
2022-12-25T01:19:59.983Z,5.40
2022-12-25T01:20:32.186Z,5.41
2022-12-25T01:21:06.579Z,5.42
2022-12-25T01:21:41.701Z,5.43
2022-12-25T01:22:13.883Z,5.43
2022-12-25T01:22:46.327Z,5.44
2022-12-25T01:23:21.139Z,5.45
2022-12-25T01:23:53.955Z,5.46
2022-12-25T01:24:26.113Z,5.45
2022-12-25T01:25:00.764Z,5.46
2022-12-25T01:25:33.508Z,5.46
2022-12-25T01:26:06.441Z,5.47
2022-12-25T01:26:41.096Z,5.48
2022-12-25T01:27:13.209Z,5.49
2022-12-25T01:27:45.297Z,5.49
2022-12-25T01:28:19.949Z,5.51
2022-12-25T01:28:53.259Z,5.52
2022-12-25T01:29:25.414Z,5.51
2022-12-25T01:30:00.044Z,5.53
2022-12-25T01:30:32.422Z,5.52
2022-12-25T01:31:05.665Z,5.54
2022-12-25T01:31:40.384Z,5.53
2022-12-25T01:32:13.008Z,5.51
2022-12-25T01:32:45.170Z,5.52
2022-12-25T01:33:19.817Z,5.51
2022-12-25T01:33:54.563Z,5.51
2022-12-25T01:34:26.623Z,5.50
2022-12-25T01:35:01.383Z,5.51
2022-12-25T01:35:33.458Z,5.51
2022-12-25T01:36:12.861Z,5.53
2022-12-25T01:36:47.543Z,5.52
2022-12-25T01:37:19.604Z,5.53
2022-12-25T01:37:55.495Z,5.54
2022-12-25T01:38:27.615Z,5.54
2022-12-25T01:39:00.265Z,5.55
2022-12-25T01:39:32.451Z,5.55
2022-12-25T01:40:08.433Z,5.57
2022-12-25T01:40:40.692Z,5.55
2022-12-25T01:41:14.667Z,5.54
2022-12-25T01:41:49.402Z,5.54
2022-12-25T01:42:23.913Z,5.54
2022-12-25T01:42:58.580Z,5.56
2022-12-25T01:43:33.344Z,5.55
2022-12-25T01:44:08.152Z,5.55
2022-12-25T01:45:25.447Z,5.55
2022-12-25T01:45:58.337Z,5.51
2022-12-25T01:46:31.533Z,5.53
2022-12-25T01:47:07.399Z,5.51
2022-12-25T01:47:39.688Z,5.52
2022-12-25T01:48:14.897Z,5.53
2022-12-25T01:48:49.647Z,5.53
2022-12-25T01:49:25.969Z,5.54
2022-12-25T01:49:58.528Z,5.53
2022-12-25T01:50:31.039Z,5.54
2022-12-25T01:51:09.377Z,5.55
2022-12-25T01:51:44.732Z,5.53
2022-12-25T01:52:24.067Z,5.53
2022-12-25T01:53:00.119Z,5.51
2022-12-25T01:53:32.346Z,5.51
2022-12-25T01:54:09.360Z,5.49
2022-12-25T01:54:46.370Z,5.48
2022-12-25T01:55:18.799Z,5.47
2022-12-25T01:55:56.792Z,5.47
2022-12-25T01:56:32.659Z,5.45
2022-12-25T01:57:09.604Z,5.45
2022-12-25T01:57:43.927Z,5.43
2022-12-25T01:58:19.869Z,5.42
2022-12-25T01:58:52.584Z,5.41
2022-12-25T01:59:26.289Z,5.42
2022-12-25T02:00:00.790Z,5.40
2022-12-25T02:00:35.730Z,5.39
2022-12-25T02:01:08.685Z,5.37
2022-12-25T02:01:40.904Z,5.37
2022-12-25T02:02:13.378Z,5.36
2022-12-25T02:02:48.273Z,5.36
2022-12-25T02:03:21.602Z,5.34
2022-12-25T02:04:01.643Z,5.33
2022-12-25T02:04:45.749Z,5.31
2022-12-25T02:05:24.074Z,5.30
2022-12-25T02:05:59.620Z,5.28
2022-12-25T02:06:31.931Z,5.29
2022-12-25T02:07:04.089Z,5.29
2022-12-25T02:07:41.336Z,5.29
2022-12-25T02:08:19.814Z,5.29
2022-12-25T02:08:52.232Z,5.29
2022-12-25T02:09:24.339Z,5.31
2022-12-25T02:09:56.416Z,5.32
2022-12-25T02:10:31.114Z,5.33
2022-12-25T02:11:03.195Z,5.34
2022-12-25T02:11:50.989Z,5.36
2022-12-25T02:12:25.217Z,5.34
2022-12-25T02:13:00.052Z,5.35
2022-12-25T02:13:32.323Z,5.35
2022-12-25T02:14:04.454Z,5.35
2022-12-25T02:14:37.858Z,5.36
2022-12-25T02:15:16.183Z,5.36
2022-12-25T02:15:58.589Z,5.36
2022-12-25T02:16:35.479Z,5.36
2022-12-25T02:17:37.085Z,5.33
2022-12-25T02:18:16.078Z,5.34
2022-12-25T02:18:54.923Z,5.35
2022-12-25T02:19:50.270Z,5.34
2022-12-25T02:21:03.471Z,5.30
2022-12-25T02:21:56.803Z,5.29
2022-12-25T02:22:39.655Z,5.28
2022-12-25T02:23:48.139Z,5.28
2022-12-25T02:24:52.498Z,5.26
2022-12-25T02:25:45.298Z,5.24
2022-12-25T02:26:32.178Z,5.23
2022-12-25T02:27:14.079Z,5.24
2022-12-25T02:28:16.442Z,5.24
2022-12-25T02:28:56.884Z,5.24
2022-12-25T02:29:31.731Z,5.20
2022-12-25T02:30:08.667Z,5.22
2022-12-25T02:30:44.631Z,5.25
2022-12-25T02:31:27.653Z,5.26
2022-12-25T02:32:10.632Z,5.27
2022-12-25T02:32:49.112Z,5.26
2022-12-25T02:33:43.828Z,5.27
2022-12-25T02:34:20.933Z,5.25
2022-12-25T02:35:03.406Z,5.26
2022-12-25T02:35:36.451Z,5.26
2022-12-25T02:36:15.620Z,5.27
2022-12-25T02:36:55.789Z,5.28
2022-12-25T02:37:33.980Z,5.28
2022-12-25T02:38:10.397Z,5.29
2022-12-25T02:39:06.253Z,5.30
2022-12-25T02:39:58.177Z,5.27
2022-12-25T02:40:37.884Z,5.25
2022-12-25T02:41:16.257Z,5.26
2022-12-25T02:41:54.085Z,5.27
2022-12-25T02:42:51.230Z,5.28
2022-12-25T02:43:46.377Z,5.25
2022-12-25T02:44:37.080Z,5.23
2022-12-25T02:45:30.469Z,5.22
2022-12-25T02:46:21.440Z,5.21
2022-12-25T02:47:09.717Z,5.19
2022-12-25T02:47:59.563Z,5.17
2022-12-25T02:48:50.632Z,5.17
2022-12-25T02:49:40.384Z,5.15
2022-12-25T02:50:30.210Z,5.14
2022-12-25T02:51:20.056Z,5.14
2022-12-25T02:52:11.544Z,5.13
2022-12-25T02:53:01.018Z,5.13
2022-12-25T02:53:50.032Z,5.15
2022-12-25T02:54:42.394Z,5.14
2022-12-25T02:55:33.725Z,5.15
2022-12-25T02:56:21.507Z,5.17
2022-12-25T02:57:11.846Z,5.17
2022-12-25T02:58:18.350Z,5.17
2022-12-25T02:59:08.348Z,5.14
2022-12-25T03:00:00.135Z,5.15
2022-12-25T03:00:52.397Z,5.15
2022-12-25T03:01:43.949Z,5.15
2022-12-25T03:02:33.594Z,5.16
2022-12-25T03:03:25.300Z,5.15
2022-12-25T03:04:17.163Z,5.14
2022-12-25T03:05:06.696Z,5.14
2022-12-25T03:05:56.605Z,5.11
2022-12-25T03:06:47.188Z,5.11
2022-12-25T03:07:23.241Z,5.09
2022-12-25T03:07:57.775Z,5.10
2022-12-25T03:08:37.448Z,5.11
2022-12-25T03:09:36.170Z,5.12
2022-12-25T03:10:26.627Z,5.08
2022-12-25T03:11:18.721Z,5.05
2022-12-25T03:11:57.128Z,5.06
2022-12-25T03:12:39.063Z,5.08
2022-12-25T03:13:18.406Z,5.06
2022-12-25T03:13:56.232Z,5.06
2022-12-25T03:14:44.375Z,5.07
2022-12-25T03:15:33.107Z,5.04
2022-12-25T03:16:21.685Z,5.04
2022-12-25T03:16:56.925Z,5.04
2022-12-25T03:17:30.793Z,5.04
2022-12-25T03:18:09.496Z,5.04
2022-12-25T03:18:42.222Z,5.03
2022-12-25T03:19:29.152Z,5.04
2022-12-25T03:20:16.506Z,5.01
2022-12-25T03:21:12.884Z,4.99
2022-12-25T03:22:00.010Z,4.97
2022-12-25T03:22:48.073Z,4.95
2022-12-25T03:23:40.483Z,4.92
2022-12-25T03:24:27.714Z,4.90
2022-12-25T03:25:20.841Z,4.88
2022-12-25T03:26:24.465Z,4.86
2022-12-25T03:27:00.239Z,4.85
2022-12-25T03:27:34.976Z,4.88
2022-12-25T03:28:07.509Z,4.92
2022-12-25T03:28:42.224Z,4.94
2022-12-25T03:29:32.038Z,4.97
2022-12-25T03:30:20.432Z,4.97
2022-12-25T03:31:13.188Z,4.96
2022-12-25T03:31:54.079Z,4.97
2022-12-25T03:32:38.002Z,5.00
2022-12-25T03:33:43.832Z,5.00
2022-12-25T03:34:46.478Z,4.96
2022-12-25T03:35:25.889Z,4.96
2022-12-25T03:36:03.992Z,4.94
2022-12-25T03:36:44.909Z,4.96
2022-12-25T03:37:41.624Z,4.98
2022-12-25T03:38:38.642Z,4.93
2022-12-25T03:39:45.881Z,4.89
2022-12-25T03:40:41.799Z,4.87
2022-12-25T03:41:37.669Z,4.85
2022-12-25T03:42:29.135Z,4.83
2022-12-25T03:43:25.483Z,4.82
2022-12-25T03:44:22.828Z,4.82
2022-12-25T03:45:20.908Z,4.83
2022-12-25T03:46:15.246Z,4.84
2022-12-25T03:47:13.446Z,4.89
2022-12-25T03:48:03.848Z,4.92
2022-12-25T03:48:55.471Z,4.92
2022-12-25T03:49:48.766Z,4.93
2022-12-25T03:50:40.885Z,4.93
2022-12-25T03:51:31.948Z,4.93
2022-12-25T03:52:21.532Z,4.93
2022-12-25T03:53:11.659Z,4.93
2022-12-25T03:54:03.571Z,4.91
2022-12-25T03:54:53.645Z,4.90
2022-12-25T03:55:41.873Z,4.88
2022-12-25T03:56:32.240Z,4.90
2022-12-25T03:57:19.571Z,4.87
2022-12-25T03:58:06.728Z,4.91
2022-12-25T03:58:53.837Z,4.90
2022-12-25T03:59:41.009Z,4.91
2022-12-25T04:00:31.922Z,4.91
2022-12-25T04:01:19.635Z,4.92
2022-12-25T04:02:07.006Z,4.90
2022-12-25T04:02:54.283Z,4.90
2022-12-25T04:03:41.580Z,4.90
2022-12-25T04:04:28.728Z,4.89
2022-12-25T04:05:24.321Z,4.91
2022-12-25T04:06:11.504Z,4.89
2022-12-25T04:06:58.839Z,4.92
2022-12-25T04:07:46.019Z,4.93
2022-12-25T04:08:33.138Z,4.92
2022-12-25T04:09:20.260Z,4.91
2022-12-25T04:10:07.377Z,4.91
2022-12-25T04:10:54.512Z,4.90
2022-12-25T04:11:41.636Z,4.90
2022-12-25T04:12:28.794Z,4.90
2022-12-25T04:13:15.957Z,4.90
2022-12-25T04:14:03.066Z,4.89
2022-12-25T04:14:50.205Z,4.90
2022-12-25T04:15:40.004Z,4.89
2022-12-25T04:16:27.273Z,4.86
2022-12-25T04:17:14.400Z,4.85
2022-12-25T04:18:01.530Z,4.83
2022-12-25T04:18:48.714Z,4.83
2022-12-25T04:19:35.820Z,4.82
2022-12-25T04:20:24.358Z,4.82
2022-12-25T04:21:11.601Z,4.84
2022-12-25T04:21:58.741Z,4.83
2022-12-25T04:22:45.858Z,4.84
2022-12-25T04:23:32.994Z,4.84
2022-12-25T04:24:21.397Z,4.82
2022-12-25T04:25:08.515Z,4.82
2022-12-25T04:25:55.659Z,4.82
2022-12-25T04:26:42.954Z,4.81
2022-12-25T04:27:30.066Z,4.82
2022-12-25T04:28:17.590Z,4.82
2022-12-25T04:29:10.810Z,4.82
2022-12-25T04:29:58.086Z,4.83
2022-12-25T04:30:47.821Z,4.83
2022-12-25T04:31:35.167Z,4.84
2022-12-25T04:32:22.340Z,4.86
2022-12-25T04:33:12.688Z,4.85
2022-12-25T04:34:00.471Z,4.85
2022-12-25T04:34:47.614Z,4.84
2022-12-25T04:35:34.857Z,4.82
2022-12-25T04:36:13.611Z,4.82
2022-12-25T04:36:45.746Z,4.82
2022-12-25T04:37:17.931Z,4.83
2022-12-25T04:37:55.071Z,4.85
2022-12-25T04:38:27.144Z,4.86
2022-12-25T04:38:59.251Z,4.89
2022-12-25T04:39:33.914Z,4.90
2022-12-25T04:40:09.326Z,4.90
2022-12-25T04:40:41.630Z,4.91
2022-12-25T04:41:16.825Z,4.92
2022-12-25T04:41:48.907Z,4.92
2022-12-25T04:42:20.996Z,4.92
2022-12-25T04:42:53.469Z,4.94
2022-12-25T04:43:28.263Z,4.95
2022-12-25T04:44:00.350Z,4.96
2022-12-25T04:44:32.506Z,4.96
2022-12-25T04:45:07.832Z,4.96
2022-12-25T04:45:42.603Z,4.96
2022-12-25T04:46:17.321Z,4.96
2022-12-25T04:46:49.502Z,4.98
2022-12-25T04:47:21.633Z,5.00
2022-12-25T04:47:53.691Z,5.01
2022-12-25T04:48:29.426Z,5.05
2022-12-25T04:49:01.545Z,5.05
2022-12-25T04:49:33.696Z,5.07
2022-12-25T04:50:09.768Z,5.08
2022-12-25T04:50:41.799Z,5.09
2022-12-25T04:51:16.483Z,5.09
2022-12-25T04:51:51.208Z,5.10
2022-12-25T04:52:23.327Z,5.07
2022-12-25T04:52:55.414Z,5.08
2022-12-25T04:53:30.083Z,5.06
2022-12-25T04:54:02.287Z,5.05
2022-12-25T04:54:34.409Z,5.06
2022-12-25T04:55:10.412Z,5.05
2022-12-25T04:55:42.762Z,5.03
2022-12-25T04:56:16.053Z,5.01
2022-12-25T04:56:50.827Z,5.01
2022-12-25T04:57:22.911Z,5.01
2022-12-25T04:57:55.022Z,5.01
2022-12-25T04:58:27.150Z,5.02
2022-12-25T04:59:01.817Z,5.01
2022-12-25T04:59:33.932Z,5.01
2022-12-25T05:00:07.804Z,5.01
2022-12-25T05:00:42.470Z,5.01
2022-12-25T05:01:17.747Z,5.01
2022-12-25T05:01:49.982Z,5.00
2022-12-25T05:02:22.356Z,4.99
2022-12-25T05:02:57.269Z,5.00
2022-12-25T05:03:30.187Z,5.00
2022-12-25T05:04:02.314Z,5.01
2022-12-25T05:04:34.455Z,5.02
2022-12-25T05:05:09.690Z,5.03
2022-12-25T05:05:41.851Z,5.03
2022-12-25T05:06:13.981Z,5.04
2022-12-25T05:06:48.937Z,5.06
2022-12-25T05:07:21.129Z,5.06
2022-12-25T05:07:53.325Z,5.06
2022-12-25T05:08:25.454Z,5.05
2022-12-25T05:09:00.596Z,5.06
2022-12-25T05:09:32.679Z,5.05
2022-12-25T05:10:05.444Z,5.06
2022-12-25T05:10:42.520Z,5.09
2022-12-25T05:11:16.083Z,5.08
2022-12-25T05:11:48.166Z,5.08
2022-12-25T05:12:22.827Z,5.08
2022-12-25T05:12:54.900Z,5.08
2022-12-25T05:13:27.028Z,5.08
2022-12-25T05:14:01.711Z,5.07
2022-12-25T05:14:33.972Z,5.08
2022-12-25T05:15:06.878Z,5.09
2022-12-25T05:15:45.360Z,5.10
2022-12-25T05:16:20.050Z,5.08
2022-12-25T05:16:52.242Z,5.08
2022-12-25T05:17:26.922Z,5.07
2022-12-25T05:17:59.040Z,5.06
2022-12-25T05:18:31.116Z,5.06
2022-12-25T05:19:05.969Z,5.05
2022-12-25T05:19:38.122Z,5.03
2022-12-25T05:20:14.970Z,5.01
2022-12-25T05:20:55.491Z,4.99
2022-12-25T05:21:27.626Z,4.97
2022-12-25T05:21:59.706Z,4.99
2022-12-25T05:22:31.878Z,5.00
2022-12-25T05:23:06.598Z,4.99
2022-12-25T05:23:38.904Z,4.98
2022-12-25T05:24:11.043Z,4.97
2022-12-25T05:24:48.085Z,4.94
2022-12-25T05:25:20.189Z,4.92
2022-12-25T05:25:52.421Z,4.93
2022-12-25T05:26:28.809Z,4.95
2022-12-25T05:27:00.935Z,4.94
2022-12-25T05:27:33.144Z,4.93
2022-12-25T05:28:05.485Z,4.94
2022-12-25T05:28:40.152Z,4.95
2022-12-25T05:29:12.371Z,4.95
2022-12-25T05:29:44.475Z,4.96
2022-12-25T05:30:19.307Z,4.98
2022-12-25T05:30:56.619Z,5.00
2022-12-25T05:31:28.813Z,5.00
2022-12-25T05:32:03.748Z,5.00
2022-12-25T05:32:35.865Z,5.00
2022-12-25T05:33:07.986Z,5.00
2022-12-25T05:33:42.633Z,5.01
2022-12-25T05:34:14.693Z,5.01
2022-12-25T05:34:47.109Z,5.01
2022-12-25T05:35:19.240Z,5.01
2022-12-25T05:35:53.913Z,5.00
2022-12-25T05:36:26.148Z,4.97
2022-12-25T05:36:58.253Z,4.97
2022-12-25T05:37:35.974Z,4.97
2022-12-25T05:38:08.521Z,4.96
2022-12-25T05:38:40.718Z,4.97
2022-12-25T05:39:15.395Z,4.96
2022-12-25T05:39:47.541Z,4.96
2022-12-25T05:40:19.609Z,4.96
2022-12-25T05:40:56.799Z,4.96
2022-12-25T05:41:33.977Z,4.97
2022-12-25T05:42:06.691Z,4.96
2022-12-25T05:42:41.329Z,4.97
2022-12-25T05:43:13.505Z,4.97
2022-12-25T05:43:47.508Z,4.97
2022-12-25T05:44:22.160Z,4.97
2022-12-25T05:44:54.504Z,4.96
2022-12-25T05:45:26.823Z,4.97
2022-12-25T05:46:04.885Z,4.99
2022-12-25T05:46:41.584Z,4.98
2022-12-25T05:47:13.693Z,4.97
2022-12-25T05:47:45.828Z,4.99
2022-12-25T05:48:18.171Z,4.99
2022-12-25T05:48:52.823Z,5.00
2022-12-25T05:49:25.027Z,5.00
2022-12-25T05:49:57.119Z,5.01
2022-12-25T05:50:31.856Z,5.01
2022-12-25T05:51:11.227Z,4.98
2022-12-25T05:51:43.708Z,5.00
2022-12-25T05:52:18.370Z,4.99
2022-12-25T05:52:50.491Z,4.98
2022-12-25T05:53:22.580Z,4.97
2022-12-25T05:53:57.240Z,4.97
2022-12-25T05:54:29.366Z,4.96
2022-12-25T05:55:01.621Z,4.97
2022-12-25T05:55:34.339Z,4.95
2022-12-25T05:56:11.306Z,4.95
2022-12-25T05:56:43.404Z,4.92
2022-12-25T05:57:15.486Z,4.91
2022-12-25T05:57:50.254Z,4.92
2022-12-25T05:58:22.353Z,4.91
2022-12-25T05:58:54.455Z,4.92
2022-12-25T05:59:31.899Z,4.93
2022-12-25T06:00:04.987Z,4.91
2022-12-25T06:00:44.692Z,4.89
2022-12-25T06:01:24.197Z,4.89
2022-12-25T06:01:56.598Z,4.86
2022-12-25T06:02:28.895Z,4.86
2022-12-25T06:03:03.931Z,4.85
2022-12-25T06:03:36.146Z,4.83
2022-12-25T06:04:12.952Z,4.83
2022-12-25T06:04:45.303Z,4.82
2022-12-25T06:05:17.387Z,4.84
2022-12-25T06:05:52.220Z,4.84
2022-12-25T06:06:24.300Z,4.85
2022-12-25T06:06:56.418Z,4.87
2022-12-25T06:07:31.090Z,4.86
2022-12-25T06:08:03.445Z,4.86
2022-12-25T06:08:35.643Z,4.86
2022-12-25T06:09:10.334Z,4.87
2022-12-25T06:09:42.414Z,4.86
2022-12-25T06:10:14.525Z,4.87
2022-12-25T06:10:49.793Z,4.88
2022-12-25T06:11:21.948Z,4.89
2022-12-25T06:11:54.043Z,4.89
2022-12-25T06:12:26.166Z,4.90
2022-12-25T06:13:00.932Z,4.89
2022-12-25T06:13:33.801Z,4.89
2022-12-25T06:14:06.107Z,4.89
2022-12-25T06:14:38.381Z,4.89
2022-12-25T06:15:13.480Z,4.90
2022-12-25T06:15:45.538Z,4.89
2022-12-25T06:16:21.022Z,4.90
2022-12-25T06:16:53.631Z,4.90
2022-12-25T06:17:29.024Z,4.91
2022-12-25T06:18:01.630Z,4.91
2022-12-25T06:18:35.722Z,4.91
2022-12-25T06:19:10.450Z,4.91
2022-12-25T06:19:42.797Z,4.90
2022-12-25T06:20:14.969Z,4.89
2022-12-25T06:20:49.705Z,4.86
2022-12-25T06:21:21.864Z,4.85
2022-12-25T06:21:54.625Z,4.85
2022-12-25T06:22:31.589Z,4.84
2022-12-25T06:23:03.793Z,4.84
2022-12-25T06:23:36.117Z,4.84
2022-12-25T06:24:13.450Z,4.83
2022-12-25T06:24:49.753Z,4.82
2022-12-25T06:25:23.018Z,4.79
2022-12-25T06:25:57.646Z,4.83
2022-12-25T06:26:31.229Z,4.82
2022-12-25T06:27:03.587Z,4.82
2022-12-25T06:27:38.308Z,4.83
2022-12-25T06:28:10.371Z,4.84
2022-12-25T06:28:43.017Z,4.83
2022-12-25T06:29:15.455Z,4.84
2022-12-25T06:29:50.135Z,4.84
2022-12-25T06:30:22.298Z,4.82
2022-12-25T06:30:54.395Z,4.83
2022-12-25T06:31:31.893Z,4.83
2022-12-25T06:32:04.638Z,4.83
2022-12-25T06:32:37.298Z,4.82
2022-12-25T06:33:12.000Z,4.83
2022-12-25T06:33:44.595Z,4.84
2022-12-25T06:34:16.946Z,4.84
2022-12-25T06:34:49.036Z,4.86
2022-12-25T06:35:23.709Z,4.86
2022-12-25T06:35:55.773Z,4.86
2022-12-25T06:36:29.577Z,4.86
2022-12-25T06:37:04.361Z,4.85
2022-12-25T06:37:36.475Z,4.84
2022-12-25T06:38:08.600Z,4.82
2022-12-25T06:38:43.483Z,4.82
2022-12-25T06:39:15.596Z,4.82
2022-12-25T06:39:47.892Z,4.83
2022-12-25T06:40:22.879Z,4.84
2022-12-25T06:40:57.734Z,4.83
2022-12-25T06:41:30.577Z,4.83
2022-12-25T06:42:05.366Z,4.83
2022-12-25T06:42:37.455Z,4.83
2022-12-25T06:43:09.631Z,4.83
2022-12-25T06:43:44.370Z,4.83
2022-12-25T06:44:16.492Z,4.84
2022-12-25T06:44:48.695Z,4.84
2022-12-25T06:45:23.555Z,4.84
2022-12-25T06:45:55.758Z,4.84
2022-12-25T06:46:31.036Z,4.84
2022-12-25T06:47:05.707Z,4.84
2022-12-25T06:47:38.342Z,4.85
2022-12-25T06:48:10.433Z,4.83
2022-12-25T06:48:49.751Z,4.84
2022-12-25T06:49:22.495Z,4.81
2022-12-25T06:49:54.609Z,4.84
2022-12-25T06:50:29.244Z,4.84
2022-12-25T06:51:03.069Z,4.83
2022-12-25T06:51:35.203Z,4.83
2022-12-25T06:52:09.856Z,4.77
2022-12-25T06:52:41.982Z,4.82
2022-12-25T06:53:14.046Z,4.81
2022-12-25T06:53:49.020Z,4.81
2022-12-25T06:54:21.194Z,4.82
2022-12-25T06:54:53.281Z,4.84
2022-12-25T06:55:27.954Z,4.84
2022-12-25T06:56:03.515Z,4.83
2022-12-25T06:56:35.820Z,4.82
2022-12-25T06:57:10.506Z,4.80
2022-12-25T06:57:42.656Z,4.77
2022-12-25T06:58:14.728Z,4.77
2022-12-25T06:58:50.887Z,4.78
2022-12-25T06:59:23.025Z,4.77
2022-12-25T06:59:55.730Z,4.78
2022-12-25T07:00:30.502Z,4.75
2022-12-25T07:01:15.307Z,4.80
2022-12-25T07:01:55.276Z,4.80
2022-12-25T07:02:27.809Z,4.80
2022-12-25T07:03:00.113Z,4.82
2022-12-25T07:03:33.562Z,4.83
2022-12-25T07:04:14.230Z,4.84
2022-12-25T07:04:46.751Z,4.81
2022-12-25T07:05:18.939Z,4.82
2022-12-25T07:05:53.594Z,4.82
2022-12-25T07:06:26.200Z,4.83
2022-12-25T07:07:01.820Z,4.86
2022-12-25T07:07:39.179Z,4.85
2022-12-25T07:08:11.223Z,4.84
2022-12-25T07:08:43.341Z,4.84
2022-12-25T07:09:18.169Z,4.84
2022-12-25T07:09:50.338Z,4.84
2022-12-25T07:10:22.553Z,4.85
2022-12-25T07:10:58.109Z,4.86
2022-12-25T07:11:31.306Z,4.87
2022-12-25T07:12:04.833Z,4.88
2022-12-25T07:12:39.789Z,4.87
2022-12-25T07:13:11.853Z,4.86
2022-12-25T07:13:44.422Z,4.83
2022-12-25T07:14:23.466Z,4.82
2022-12-25T07:15:02.371Z,4.81
2022-12-25T07:15:34.637Z,4.80
2022-12-25T07:16:07.959Z,4.80
2022-12-25T07:16:40.163Z,4.81
2022-12-25T07:17:17.847Z,4.82
2022-12-25T07:17:49.954Z,4.81
2022-12-25T07:18:22.050Z,4.80
2022-12-25T07:18:56.757Z,4.80
2022-12-25T07:19:28.880Z,4.78
2022-12-25T07:20:01.072Z,4.80
2022-12-25T07:20:35.812Z,4.80
2022-12-25T07:21:09.217Z,4.79
2022-12-25T07:21:41.519Z,4.77
2022-12-25T07:22:16.631Z,4.76
2022-12-25T07:22:48.744Z,4.77
2022-12-25T07:23:20.890Z,4.80
2022-12-25T07:23:55.663Z,4.78
2022-12-25T07:24:27.831Z,4.78
2022-12-25T07:25:00.027Z,4.78
2022-12-25T07:25:37.363Z,4.79
2022-12-25T07:26:10.940Z,4.78
2022-12-25T07:26:43.005Z,4.79
2022-12-25T07:27:17.757Z,4.80
2022-12-25T07:27:49.855Z,4.80
2022-12-25T07:28:22.205Z,4.81
2022-12-25T07:28:55.406Z,4.80
2022-12-25T07:29:30.179Z,4.80
2022-12-25T07:30:02.288Z,4.79
2022-12-25T07:30:34.380Z,4.78
2022-12-25T07:31:12.501Z,4.78
2022-12-25T07:31:45.019Z,4.75
2022-12-25T07:32:22.374Z,4.75
2022-12-25T07:32:54.515Z,4.72
2022-12-25T07:33:26.706Z,4.71
2022-12-25T07:34:01.372Z,4.72
2022-12-25T07:34:33.599Z,4.70
2022-12-25T07:35:06.438Z,4.72
2022-12-25T07:35:38.845Z,4.72
2022-12-25T07:36:14.268Z,4.73
2022-12-25T07:36:47.085Z,4.71
2022-12-25T07:37:19.157Z,4.72
2022-12-25T07:37:51.309Z,4.73
2022-12-25T07:38:25.994Z,4.75
2022-12-25T07:38:58.262Z,4.76
2022-12-25T07:39:34.202Z,4.77
2022-12-25T07:40:07.555Z,4.77
2022-12-25T07:40:39.714Z,4.78
2022-12-25T07:41:18.436Z,4.79
2022-12-25T07:41:51.417Z,4.77
2022-12-25T07:42:25.502Z,4.77
2022-12-25T07:43:02.414Z,4.77
2022-12-25T07:43:34.515Z,4.77
2022-12-25T07:44:06.607Z,4.76
2022-12-25T07:44:41.231Z,4.76
2022-12-25T07:45:13.335Z,4.75
2022-12-25T07:45:45.718Z,4.75
2022-12-25T07:46:21.079Z,4.76
2022-12-25T07:46:53.460Z,4.76
2022-12-25T07:47:28.141Z,4.80
2022-12-25T07:48:05.867Z,4.79
2022-12-25T07:48:39.703Z,4.77
2022-12-25T07:49:12.656Z,4.77
2022-12-25T07:49:49.334Z,4.78
2022-12-25T07:50:21.584Z,4.78
2022-12-25T07:50:57.847Z,4.79
2022-12-25T07:51:32.855Z,4.78
2022-12-25T07:52:05.468Z,4.77
2022-12-25T07:52:43.183Z,4.76
2022-12-25T07:53:18.370Z,4.72
2022-12-25T07:53:50.484Z,4.72
2022-12-25T07:54:22.852Z,4.70
2022-12-25T07:54:57.523Z,4.68
2022-12-25T07:55:29.739Z,4.68
2022-12-25T07:56:04.325Z,4.66
2022-12-25T07:56:38.992Z,4.66
2022-12-25T07:57:11.068Z,4.65
2022-12-25T07:57:43.133Z,4.65
2022-12-25T07:58:23.093Z,4.66
2022-12-25T07:58:55.556Z,4.65
2022-12-25T07:59:30.223Z,4.65
2022-12-25T08:00:02.388Z,4.66
2022-12-25T08:00:43.878Z,4.64
2022-12-25T08:01:21.455Z,4.64
2022-12-25T08:01:53.886Z,4.63
2022-12-25T08:02:29.167Z,4.63
2022-12-25T08:03:04.644Z,4.62
2022-12-25T08:03:37.237Z,4.61
2022-12-25T08:04:13.124Z,4.62
2022-12-25T08:04:45.269Z,4.62
2022-12-25T08:05:17.547Z,4.63
2022-12-25T08:05:52.225Z,4.63
2022-12-25T08:06:29.699Z,4.63
2022-12-25T08:07:04.638Z,4.62
2022-12-25T08:07:36.858Z,4.61
2022-12-25T08:08:08.969Z,4.62
2022-12-25T08:08:41.825Z,4.63
2022-12-25T08:09:16.662Z,4.65
2022-12-25T08:09:48.771Z,4.66
2022-12-25T08:10:21.040Z,4.69
2022-12-25T08:10:55.724Z,4.71
2022-12-25T08:11:27.955Z,4.72
2022-12-25T08:12:00.048Z,4.74
2022-12-25T08:12:34.750Z,4.74
2022-12-25T08:13:13.937Z,4.75
2022-12-25T08:13:46.617Z,4.75